Time;durP1;ratioP1;P1;durP2;ratioP2;P2;SDS_P1;SDS_P2;PMS_P1;PMS_P2;Temp;Humidity;BMP_temperature;BMP_pressure;BME280_temperature;BME280_humidity;BME280_pressure;Samples;Min_cycle;Max_cycle;Signal;HPM_P1;HPM_P2
2022/10/24 00:01:17;;;;;;;34.78;17.23;;;13.30;99.90;;;12.05;100.00;100533.50;5046193;28;20104;-86
2022/10/24 00:03:44;;;;;;;31.77;16.70;;;13.30;99.90;;;12.03;100.00;100535.34;5048322;28;20043;-85
2022/10/24 00:06:11;;;;;;;35.47;17.58;;;13.30;99.90;;;12.01;100.00;100543.38;5045468;28;20040;-84
2022/10/24 00:08:46;;;;;;;25.50;16.15;;;13.30;99.90;;;12.07;100.00;100537.78;5044194;28;20072;-86
2022/10/24 00:11:21;;;;;;;30.20;16.40;;;13.30;99.90;;;12.13;100.00;100556.81;5040009;28;20036;-84
2022/10/24 00:13:50;;;;;;;30.13;15.93;;;13.30;99.90;;;12.17;100.00;100555.72;5042717;28;20033;-86
2022/10/24 00:16:16;;;;;;;34.60;16.33;;;13.30;99.90;;;12.19;100.00;100561.78;5042339;28;20037;-84
2022/10/24 00:18:42;;;;;;;26.35;14.95;;;13.40;99.90;;;12.24;100.00;100562.34;5010427;28;20061;-86
2022/10/24 00:21:18;;;;;;;25.23;14.30;;;13.40;99.90;;;12.24;100.00;100560.56;5035954;28;20021;-85
2022/10/24 00:23:45;;;;;;;24.60;13.90;;;13.40;99.90;;;12.28;100.00;100558.59;5006174;28;20030;-85
2022/10/24 00:26:12;;;;;;;25.30;14.32;;;13.40;99.90;;;12.26;100.00;100556.03;5042704;28;20463;-84
2022/10/24 00:28:43;;;;;;;27.30;14.13;;;13.40;99.90;;;12.31;100.00;100555.81;5026206;28;20017;-84
2022/10/24 00:31:15;;;;;;;32.58;13.30;;;13.40;99.90;;;12.35;100.00;100559.94;5039440;28;20017;-85
2022/10/24 00:33:46;;;;;;;29.23;13.25;;;13.40;99.90;;;12.37;100.00;100557.22;5046432;28;20075;-84
2022/10/24 00:36:19;;;;;;;27.60;12.05;;;13.50;99.90;;;12.40;100.00;100557.06;5043051;28;20033;-85
2022/10/24 00:38:49;;;;;;;21.35;11.30;;;13.50;99.90;;;12.41;100.00;100553.47;5024640;28;20132;-84
2022/10/24 00:41:18;;;;;;;27.38;11.75;;;13.50;99.90;;;12.39;100.00;100556.19;5014133;28;20032;-84
2022/10/24 00:43:45;;;;;;;21.95;11.85;;;13.50;99.90;;;12.37;100.00;100550.16;5020294;28;20025;-83
2022/10/24 00:46:19;;;;;;;21.20;11.43;;;;;;;12.40;100.00;100544.72;5039822;28;20033;-84
2022/10/24 00:48:52;;;;;;;20.85;11.75;;;13.50;99.90;;;12.40;100.00;100544.72;5042417;28;20064;-85
2022/10/24 00:51:43;;;;;;;22.45;10.30;;;13.50;99.90;;;12.41;100.00;100546.41;5045464;28;20033;-85
2022/10/24 00:54:12;;;;;;;24.65;11.82;;;13.50;99.90;;;12.42;100.00;100537.56;5015961;28;20044;-86
2022/10/24 00:56:49;;;;;;;20.13;10.18;;;13.50;99.90;;;12.41;100.00;100533.19;5003575;28;20497;-85
2022/10/24 00:59:22;;;;;;;24.02;10.88;;;13.60;99.90;;;12.44;100.00;100535.69;5011437;28;20380;-87
2022/10/24 01:01:50;;;;;;;23.10;10.43;;;13.50;99.90;;;12.45;100.00;100533.88;5034613;28;20025;-86
2022/10/24 01:04:18;;;;;;;24.33;9.40;;;13.60;99.90;;;12.48;100.00;100541.63;5009813;28;20025;-84
2022/10/24 01:07:15;;;;;;;19.70;9.95;;;13.60;99.90;;;12.47;100.00;100532.84;5051943;28;20076;-85
2022/10/24 01:10:04;;;;;;;18.33;8.85;;;13.60;99.90;;;12.49;100.00;100535.41;5027251;28;20033;-85
2022/10/24 01:12:45;;;;;;;23.40;8.75;;;13.60;99.90;;;12.54;100.00;100519.31;5043479;28;20029;-84
2022/10/24 01:15:24;;;;;;;7.93;3.97;;;13.60;99.90;;;12.57;100.00;100511.19;5029305;28;20049;-85
2022/10/24 01:18:09;;;;;;;11.80;4.45;;;13.70;99.90;;;12.60;100.00;100513.66;5045008;28;20498;-85
2022/10/24 01:21:03;;;;;;;18.73;7.03;;;13.70;99.90;;;12.62;100.00;100509.16;5043983;28;20413;-83
2022/10/24 01:23:47;;;;;;;23.77;8.93;;;13.70;99.90;;;12.60;100.00;100517.16;5029910;28;20086;-84
2022/10/24 01:26:52;;;;;;;20.83;9.00;;;13.70;99.90;;;12.62;100.00;100517.06;5031980;28;20037;-84
2022/10/24 01:29:47;;;;;;;22.02;9.55;;;13.70;99.90;;;12.63;100.00;100516.13;5035343;28;20032;-85
2022/10/24 01:32:41;;;;;;;20.80;9.07;;;13.70;99.90;;;12.64;100.00;100509.91;5041876;28;20092;-84
2022/10/24 01:35:34;;;;;;;25.17;9.63;;;13.70;99.90;;;12.61;100.00;100503.03;5024411;28;20072;-84
2022/10/24 01:38:30;;;;;;;15.05;8.52;;;13.70;99.90;;;12.61;100.00;100512.72;5025593;28;20032;-84
2022/10/24 01:41:16;;;;;;;19.77;8.98;;;13.70;99.90;;;12.55;100.00;100494.56;5034846;28;20088;-85
2022/10/24 01:44:04;;;;;;;17.35;8.15;;;13.60;99.90;;;12.47;100.00;100487.97;5026382;28;20443;-85
2022/10/24 01:46:40;;;;;;;3.10;2.25;;;13.60;99.90;;;12.49;100.00;100493.16;5048832;28;20481;-84
2022/10/24 01:49:16;;;;;;;17.60;9.00;;;13.60;99.90;;;12.46;100.00;100481.00;5029725;28;20033;-84
2022/10/24 01:51:44;;;;;;;17.88;8.98;;;13.60;99.90;;;12.43;100.00;100480.31;5048703;28;20033;-85
2022/10/24 01:54:21;;;;;;;16.80;8.45;;;13.60;99.90;;;12.41;100.00;100480.38;5042518;28;20030;-83
2022/10/24 01:56:46;;;;;;;;;;;13.60;99.90;;;12.33;100.00;100482.63;5030914;28;20037;-84
2022/10/24 01:59:27;;;;;;;16.15;8.55;;;13.50;99.90;;;12.31;100.00;100479.25;5019027;28;19915;-84
2022/10/24 02:02:03;;;;;;;14.95;8.10;;;13.50;99.90;;;12.34;100.00;100471.13;5047643;28;20472;-83
2022/10/24 02:04:31;;;;;;;27.67;9.10;;;13.50;99.90;;;12.37;100.00;100472.75;5049004;28;20029;-85
2022/10/24 02:07:08;;;;;;;22.00;9.88;;;13.50;99.90;;;12.42;100.00;100478.59;5050138;28;20100;-85
2022/10/24 02:09:38;;;;;;;22.52;9.80;;;13.50;99.90;;;12.38;100.00;100453.34;5043950;28;20761;-85
2022/10/24 02:12:16;;;;;;;22.33;10.50;;;13.50;99.90;;;12.37;100.00;100467.47;5031310;28;20478;-83
2022/10/24 02:15:04;;;;;;;25.33;10.13;;;13.50;99.90;;;12.31;100.00;100451.06;5034715;28;20063;-85
2022/10/24 02:17:30;;;;;;;22.35;9.65;;;13.50;99.90;;;12.23;100.00;100455.91;5046061;28;20029;-85
2022/10/24 02:19:57;;;;;;;19.50;9.80;;;13.50;99.90;;;12.23;100.00;100482.31;5026615;28;20082;-84
2022/10/24 02:22:54;;;;;;;25.95;11.48;;;13.40;99.90;;;12.24;100.00;100493.72;5049514;28;20511;-86
2022/10/24 02:25:35;;;;;;;23.42;10.50;;;13.40;99.90;;;12.24;100.00;100470.81;5025641;28;20438;-86
2022/10/24 02:28:12;;;;;;;25.13;10.68;;;13.40;99.90;;;12.20;100.00;100473.72;5048000;28;20090;-86
2022/10/24 02:30:53;;;;;;;21.25;10.35;;;13.30;99.90;;;12.16;100.00;100483.63;5045272;28;20496;-86
2022/10/24 02:33:29;;;;;;;19.88;10.77;;;13.30;99.90;;;12.15;100.00;100466.06;5046995;28;20029;-86
2022/10/24 02:35:56;;;;;;;;;;;13.30;99.90;;;12.08;100.00;100446.25;5033868;28;20108;-85
2022/10/24 02:38:34;;;;;;;20.90;9.95;;;13.30;99.90;;;12.11;100.00;100444.25;5013909;28;19909;-85
2022/10/24 02:41:06;;;;;;;18.90;10.15;;;13.30;99.90;;;12.13;100.00;100443.34;5026284;28;20028;-86
2022/10/24 02:43:41;;;;;;;19.50;9.23;;;13.30;99.90;;;12.09;100.00;100438.25;5028364;28;20028;-85
2022/10/24 02:46:09;;;;;;;19.30;9.97;;;13.30;99.90;;;12.13;100.00;100435.41;5018366;28;20017;-86
2022/10/24 02:48:44;;;;;;;23.55;9.98;;;13.30;99.90;;;12.11;100.00;100446.06;5049479;28;20029;-84
2022/10/24 02:51:14;;;;;;;21.85;9.40;;;13.30;99.90;;;12.14;100.00;100443.25;5030117;28;20021;-86
2022/10/24 02:53:47;;;;;;;16.70;9.88;;;13.30;99.90;;;12.13;100.00;100446.81;5044743;28;20029;-86
2022/10/24 02:56:13;;;;;;;17.67;9.95;;;13.30;99.90;;;12.06;100.00;100446.31;5044497;28;20029;-85
2022/10/24 02:58:41;;;;;;;24.77;9.80;;;13.20;99.90;;;12.05;100.00;100439.38;5028944;28;20031;-86
2022/10/24 03:01:14;;;;;;;17.05;9.65;;;13.20;99.90;;;12.03;100.00;100435.09;5048315;28;20033;-86
2022/10/24 03:03:40;;;;;;;16.55;10.13;;;13.20;99.90;;;11.97;100.00;100452.13;5015837;28;20490;-85
2022/10/24 03:06:06;;;;;;;23.45;10.77;;;13.20;99.90;;;11.96;100.00;100447.78;5051099;28;20056;-86
2022/10/24 03:08:32;;;;;;;22.73;11.23;;;13.10;99.90;;;11.93;100.00;100445.31;5016996;28;20060;-86
2022/10/24 03:11:06;;;;;;;19.60;10.30;;;13.10;99.90;;;11.88;100.00;100429.75;5046883;28;20038;-85
2022/10/24 03:13:31;;;;;;;20.98;10.95;;;13.10;99.90;;;11.84;100.00;100424.72;5042250;28;20032;-86
2022/10/24 03:16:00;;;;;;;28.00;11.32;;;13.00;99.90;;;11.84;100.00;100430.00;5045957;28;20033;-86
2022/10/24 03:18:26;;;;;;;24.83;11.68;;;13.00;99.90;;;11.79;100.00;100430.25;5023818;28;20037;-86
2022/10/24 03:20:59;;;;;;;28.00;10.98;;;12.90;99.90;;;11.77;100.00;100431.25;5032528;28;20374;-86
2022/10/24 03:23:27;;;;;;;26.52;11.68;;;12.90;99.90;;;11.68;100.00;100437.91;5045230;28;20037;-86
2022/10/24 03:25:55;;;;;;;26.55;10.68;;;12.90;99.90;;;11.65;100.00;100428.38;5019886;28;20087;-86
2022/10/24 03:28:29;;;;;;;22.77;11.50;;;12.80;99.90;;;11.62;100.00;100435.59;5049818;28;20052;-85
2022/10/24 03:30:55;;;;;;;20.42;10.98;;;12.80;99.90;;;11.61;100.00;100434.75;5041436;28;20485;-86
2022/10/24 03:33:21;;;;;;;20.92;10.98;;;12.80;99.90;;;11.62;100.00;100435.59;5016313;28;20040;-87
2022/10/24 03:35:54;;;;;;;25.17;11.40;;;12.80;99.90;;;11.64;100.00;100433.72;5046966;28;20026;-86
2022/10/24 03:38:22;;;;;;;22.55;11.00;;;12.80;99.90;;;11.64;100.00;100423.19;5013096;28;20116;-86
2022/10/24 03:40:49;;;;;;;26.17;11.90;;;12.80;99.90;;;11.64;100.00;100431.09;5047102;28;20087;-84
2022/10/24 03:43:15;;;;;;;29.02;13.00;;;12.80;99.90;;;11.67;100.00;100430.94;5023984;28;20025;-85
2022/10/24 03:45:46;;;;;;;21.65;11.95;;;12.80;99.90;;;11.69;100.00;100435.19;5027676;28;20026;-86
2022/10/24 03:48:13;;;;;;;24.42;12.90;;;12.80;99.90;;;11.71;100.00;100445.66;5050148;28;20028;-85
2022/10/24 03:50:39;;;;;;;30.75;13.40;;;12.90;99.90;;;11.72;100.00;100430.69;5050635;28;20024;-86
2022/10/24 03:53:05;;;;;;;31.65;14.57;;;12.80;99.90;;;11.70;100.00;100423.72;5013485;28;20032;-85
2022/10/24 03:55:31;;;;;;;32.13;14.40;;;12.80;99.90;;;11.71;100.00;100421.91;5013811;28;20055;-86
2022/10/24 03:58:04;;;;;;;33.58;14.45;;;12.80;99.90;;;11.69;100.00;100427.28;5031928;28;20040;-86
2022/10/24 04:00:31;;;;;;;33.45;14.68;;;12.80;99.90;;;11.69;100.00;100426.44;5045331;28;20029;-87
2022/10/24 04:02:57;;;;;;;28.60;13.43;;;12.80;99.90;;;11.67;100.00;100426.50;5042968;28;20481;-86
2022/10/24 04:05:22;;;;;;;31.65;14.65;;;12.80;99.90;;;11.65;100.00;100416.97;5046837;28;20036;-86
2022/10/24 04:07:59;;;;;;;32.67;14.93;;;12.80;99.90;;;11.64;100.00;100402.97;5015555;28;20108;-86
2022/10/24 04:10:24;;;;;;;33.50;14.55;;;12.80;99.90;;;11.61;100.00;100413.66;5035125;28;20025;-85
2022/10/24 04:12:50;;;;;;;24.73;14.30;;;12.80;99.90;;;11.65;100.00;100409.06;5032559;28;20174;-87
2022/10/24 04:15:24;;;;;;;31.73;14.50;;;12.80;99.90;;;11.69;100.00;100408.81;5048383;28;20503;-86
2022/10/24 04:17:52;;;;;;;30.15;15.63;;;12.90;99.90;;;11.68;100.00;100409.75;5049651;28;20028;-87
2022/10/24 04:20:19;;;;;;;33.30;16.42;;;12.90;99.90;;;11.73;100.00;100419.16;5027549;28;20036;-87
2022/10/24 04:22:52;;;;;;;49.58;17.83;;;12.90;99.90;;;11.75;100.00;100415.53;5011958;28;20025;-87
2022/10/24 04:25:23;;;;;;;40.78;17.38;;;12.90;99.90;;;11.76;100.00;100416.38;5015911;28;20025;-87
2022/10/24 04:27:57;;;;;;;36.92;16.90;;;12.90;99.90;;;11.75;100.00;100420.81;5041268;28;20017;-87
2022/10/24 04:30:24;;;;;;;43.20;18.08;;;12.90;99.90;;;11.75;100.00;100406.75;5038831;28;20532;-87
2022/10/24 04:32:58;;;;;;;37.67;18.20;;;12.90;99.90;;;11.74;100.00;100412.97;5042408;28;20108;-87
2022/10/24 04:35:25;;;;;;;46.25;19.48;;;12.90;99.90;;;11.69;100.00;100415.88;5043745;28;20033;-87
2022/10/24 04:37:51;;;;;;;47.75;19.52;;;12.90;99.90;;;11.69;100.00;100424.63;5024983;28;20033;-87
2022/10/24 04:40:17;;;;;;;47.55;18.95;;;12.80;99.90;;;11.67;100.00;100423.88;5009148;28;20409;-87
2022/10/24 04:42:43;;;;;;;39.00;18.40;;;12.80;99.90;;;11.70;100.00;100428.13;5014363;28;20029;-86
2022/10/24 04:45:16;;;;;;;49.78;21.95;;;12.80;99.90;;;11.75;100.00;100438.41;5016196;28;20481;-86
2022/10/24 04:47:43;;;;;;;70.65;26.20;;;;;;;11.80;100.00;100439.84;5029574;28;20033;-87
2022/10/24 04:50:09;;;;;;;79.72;27.58;;;13.00;99.90;;;11.90;100.00;100445.50;5030022;28;20033;-86
2022/10/24 04:52:35;;;;;;;73.53;28.08;;;;;;;11.98;100.00;100437.16;5048375;28;20532;-87
2022/10/24 04:55:11;;;;;;;76.50;29.20;;;13.10;99.90;;;12.05;100.00;100434.09;5040963;28;20036;-87
2022/10/24 04:57:37;;;;;;;86.63;30.23;;;13.20;99.90;;;12.10;100.00;100421.47;5048339;28;20131;-87
2022/10/24 05:00:13;;;;;;;75.47;29.30;;;13.30;99.90;;;12.15;100.00;100418.56;5029001;28;20127;-86
2022/10/24 05:02:39;;;;;;;73.35;29.08;;;13.30;99.90;;;12.19;100.00;100400.75;5039392;28;20025;-87
2022/10/24 05:05:05;;;;;;;62.78;27.10;;;13.30;99.90;;;12.26;100.00;100404.72;5017597;28;20088;-87
2022/10/24 05:07:31;;;;;;;63.25;27.98;;;13.40;99.90;;;12.25;100.00;100401.25;5031740;28;20389;-87
2022/10/24 05:10:05;;;;;;;76.05;29.77;;;13.40;99.90;;;12.33;100.00;100406.06;5045199;28;20021;-87
2022/10/24 05:15:08;;;;;;;60.55;27.15;;;13.40;99.90;;;12.37;100.00;100402.28;5061421;28;20047;-80
2022/10/24 05:17:34;;;;;;;69.40;27.63;;;13.50;99.90;;;12.39;100.00;100403.06;5051901;28;20047;-79
2022/10/24 05:20:00;;;;;;;60.17;26.17;;;13.50;99.90;;;12.40;100.00;100406.56;5050619;28;20489;-80
2022/10/24 05:22:26;;;;;;;77.68;28.60;;;13.50;99.90;;;12.45;100.00;100415.91;5042466;28;20044;-79
2022/10/24 05:24:56;;;;;;;64.80;27.15;;;13.50;99.90;;;12.48;100.00;100410.47;5039374;28;20103;-79
2022/10/24 05:27:25;;;;;;;60.10;26.50;;;13.60;99.90;;;12.48;100.00;100410.47;5041046;28;20060;-79
2022/10/24 05:29:52;;;;;;;60.25;27.27;;;13.60;99.90;;;12.51;100.00;100407.63;5041098;28;20041;-80
2022/10/24 05:32:19;;;;;;;57.42;25.60;;;13.60;99.90;;;12.55;100.00;100410.06;5021885;28;20389;-80
2022/10/24 05:34:49;;;;;;;61.28;27.75;;;13.60;99.90;;;12.53;100.00;100415.47;5023282;28;20500;-79
2022/10/24 05:37:14;;;;;;;59.25;26.55;;;13.60;99.90;;;12.52;100.00;100411.94;5031165;28;20044;-80
2022/10/24 05:39:40;;;;;;;51.85;23.45;;;13.60;99.90;;;12.49;100.00;100421.84;5029983;28;20034;-80
2022/10/24 05:42:06;;;;;;;64.85;28.30;;;13.60;99.90;;;12.54;100.00;100426.88;5027030;28;20117;-80
2022/10/24 05:44:32;;;;;;;67.65;29.45;;;13.60;99.90;;;12.52;100.00;100437.50;5025187;28;20088;-79
2022/10/24 05:46:58;;;;;;;63.95;28.08;;;13.60;99.90;;;12.56;100.00;100433.75;5024782;28;20037;-79
2022/10/24 05:49:26;;;;;;;58.78;26.58;;;13.60;99.90;;;12.57;100.00;100424.03;5025436;28;20029;-79
2022/10/24 05:51:55;;;;;;;54.90;24.80;;;13.60;99.90;;;12.58;100.00;100417.81;5050203;28;20029;-80
2022/10/24 05:54:21;;;;;;;49.47;24.23;;;13.70;99.90;;;12.56;100.00;100412.63;5033224;28;20465;-80
2022/10/24 05:56:47;;;;;;;47.45;24.58;;;13.70;99.90;;;12.56;100.00;100406.50;5025416;28;20088;-80
2022/10/24 05:59:13;;;;;;;43.88;23.23;;;13.70;99.90;;;12.56;100.00;100403.84;5026723;28;20035;-80
2022/10/24 06:01:40;;;;;;;41.70;23.33;;;13.60;99.90;;;12.49;100.00;100421.84;5024524;28;20700;-79
2022/10/24 06:04:08;;;;;;;47.67;24.42;;;13.60;99.90;;;12.52;100.00;100430.44;5039326;28;20029;-80
2022/10/24 06:06:42;;;;;;;44.38;22.92;;;13.90;99.90;;;12.52;100.00;100422.50;5024618;28;20042;-80
2022/10/24 06:09:15;;;;;;;49.13;24.20;;;13.60;99.90;;;12.55;100.00;100416.22;5024465;28;20021;-80
2022/10/24 06:11:41;;;;;;;41.45;22.65;;;13.70;99.90;;;12.60;100.00;100414.13;5008100;28;20035;-80
2022/10/24 06:14:08;;;;;;;50.38;23.45;;;13.70;99.90;;;12.63;100.00;100415.75;5040173;28;20500;-80
2022/10/24 06:16:34;;;;;;;21.05;12.90;;;13.70;99.90;;;12.66;100.00;100405.00;5006694;28;20075;-79
2022/10/24 06:19:05;;;;;;;46.63;23.65;;;13.80;99.90;;;12.69;100.00;100402.16;5025354;28;20033;-80
2022/10/24 06:21:31;;;;;;;42.70;22.63;;;13.80;99.90;;;12.69;100.00;100407.44;5039501;28;20067;-79
2022/10/24 06:23:57;;;;;;;43.47;22.13;;;13.80;99.90;;;12.74;100.00;100410.66;5023652;28;20025;-80
2022/10/24 06:26:24;;;;;;;48.45;24.73;;;13.90;99.90;;;12.82;100.00;100424.25;5023994;28;20025;-79
2022/10/24 06:28:50;;;;;;;46.00;24.52;;;13.90;99.90;;;12.90;100.00;100421.16;5032166;28;20389;-80
2022/10/24 06:31:19;;;;;;;46.35;23.42;;;13.90;99.90;;;12.93;100.00;100437.66;5022914;28;20026;-79
2022/10/24 06:33:45;;;;;;;38.55;19.33;;;14.00;99.90;;;13.08;100.00;100437.66;5025805;28;20028;-79
2022/10/24 06:36:11;;;;;;;53.63;23.50;;;14.10;99.90;;;13.13;100.00;100440.88;5027394;28;20497;-80
2022/10/24 06:38:37;;;;;;;41.90;23.10;;;14.00;99.90;;;13.17;100.00;100438.91;5028446;28;20029;-80
2022/10/24 06:41:10;;;;;;;45.85;24.20;;;14.10;99.90;;;13.31;100.00;100436.28;5042974;28;20115;-81
2022/10/24 06:43:40;;;;;;;46.42;24.33;;;14.20;99.90;;;13.46;100.00;100435.31;5034007;28;20051;-80
2022/10/24 06:46:08;;;;;;;46.05;23.30;;;14.30;99.90;;;13.65;100.00;100444.72;5028442;28;20091;-79
2022/10/24 06:48:43;;;;;;;43.55;23.00;;;14.40;99.90;;;13.66;100.00;100457.00;5041982;28;20025;-80
2022/10/24 06:51:13;;;;;;;43.28;22.08;;;14.40;99.90;;;13.61;100.00;100449.38;5026557;28;20105;-80
2022/10/24 06:53:38;;;;;;;45.42;22.85;;;14.50;99.90;;;13.68;100.00;100444.53;5026373;28;20401;-81
2022/10/24 06:56:10;;;;;;;46.35;22.35;;;14.50;99.90;;;14.39;100.00;100443.41;5023865;28;20033;-79
2022/10/24 06:58:36;;;;;;;40.97;22.35;;;14.80;99.90;;;15.15;100.00;100452.38;5028104;28;20091;-80
2022/10/24 07:01:17;;;;;;;41.85;21.15;;;15.00;99.90;;;15.28;100.00;100445.25;5034189;28;20040;-81
2022/10/24 07:03:43;;;;;;;35.75;19.25;;;15.30;99.90;;;16.00;100.00;100449.84;5028396;28;20033;-80
2022/10/24 07:06:22;;;;;;;28.95;17.45;;;15.60;99.90;;;16.23;100.00;100450.81;5033703;28;20025;-80
2022/10/24 07:08:49;;;;;;;35.28;17.42;;;15.90;99.90;;;16.13;100.00;100450.66;5044457;28;20509;-80
2022/10/24 07:11:14;;;;;;;27.02;14.43;;;16.00;99.90;;;15.62;100.00;100444.66;5009474;28;20406;-80
2022/10/24 07:13:40;;;;;;;29.55;14.40;;;15.90;99.90;;;15.15;100.00;100439.13;5026069;28;20030;-79
2022/10/24 07:16:09;;;;;;;26.83;15.27;;;15.80;99.90;;;14.76;100.00;100430.34;5012013;28;20036;-81
2022/10/24 07:18:34;;;;;;;30.48;15.27;;;15.70;99.90;;;14.54;100.00;100433.59;5027095;28;20043;-81
2022/10/24 07:21:03;;;;;;;27.17;15.00;;;15.50;99.90;;;14.22;100.00;100433.09;5025683;28;20021;-79
2022/10/24 07:23:30;;;;;;;25.10;14.77;;;15.30;99.90;;;14.19;100.00;100444.75;5025942;28;20028;-80
2022/10/24 07:26:05;;;;;;;29.38;14.90;;;15.30;99.90;;;14.28;100.00;100445.94;5026454;28;20036;-80
2022/10/24 07:28:32;;;;;;;28.30;14.95;;;15.20;99.90;;;14.31;100.00;100440.41;5016205;28;20108;-80
2022/10/24 07:30:57;;;;;;;29.27;13.73;;;15.20;99.90;;;14.40;100.00;100438.94;5011146;28;20031;-80
2022/10/24 07:33:23;;;;;;;24.00;13.90;;;15.30;99.90;;;14.52;100.00;100446.94;5024670;28;20033;-80
2022/10/24 07:35:57;;;;;;;23.52;13.48;;;15.40;99.90;;;14.62;100.00;100444.56;5007302;28;20025;-81
2022/10/24 07:38:23;;;;;;;25.70;13.95;;;15.40;99.90;;;14.70;100.00;100436.06;5024670;28;20040;-80
2022/10/24 07:40:49;;;;;;;23.75;11.15;;;15.50;99.90;;;14.74;100.00;100430.44;5025000;28;20021;-80
2022/10/24 07:43:20;;;;;;;16.05;10.55;;;15.50;99.90;;;14.82;100.00;100426.44;5042484;28;20661;-81
2022/10/24 07:45:46;;;;;;;21.73;11.60;;;15.60;99.90;;;14.90;100.00;100419.66;5032675;28;20033;-81
2022/10/24 07:48:12;;;;;;;23.10;12.05;;;15.70;99.90;;;14.95;100.00;100422.81;5024199;28;20090;-81
2022/10/24 07:50:45;;;;;;;21.90;11.88;;;15.70;99.90;;;14.98;100.00;100427.88;5025648;28;20107;-80
2022/10/24 07:53:12;;;;;;;26.67;12.40;;;15.80;99.90;;;15.16;100.00;100430.19;5023921;28;20053;-79
2022/10/24 07:55:44;;;;;;;19.95;11.32;;;15.90;99.90;;;15.12;100.00;100423.44;5025544;28;20038;-81
2022/10/24 07:58:11;;;;;;;20.10;11.75;;;16.00;99.90;;;15.09;100.00;100428.94;5025585;28;20052;-80
2022/10/24 08:00:37;;;;;;;21.02;11.85;;;16.00;99.90;;;15.17;100.00;100439.88;5013289;28;21168;-81
2022/10/24 08:03:03;;;;;;;24.75;11.20;;;16.00;99.90;;;15.26;100.00;100441.03;5024555;28;20474;-81
2022/10/24 08:05:34;;;;;;;21.48;11.38;;;16.10;99.90;;;15.38;100.00;100437.50;5044558;28;20091;-81
2022/10/24 08:08:00;;;;;;;21.35;10.85;;;16.20;99.90;;;15.58;100.00;100444.88;5026387;28;20057;-81
2022/10/24 08:10:25;;;;;;;22.48;10.93;;;16.40;99.90;;;15.74;100.00;100451.75;5027473;28;20096;-81
2022/10/24 08:12:51;;;;;;;17.92;10.38;;;16.50;99.90;;;15.93;100.00;100453.91;5022813;28;20063;-79
2022/10/24 08:15:17;;;;;;;21.73;10.45;;;16.60;99.90;;;15.99;100.00;100454.31;5027854;28;20098;-81
2022/10/24 08:17:43;;;;;;;21.38;9.48;;;16.70;99.90;;;16.06;100.00;100465.34;5025382;28;20395;-81
2022/10/24 08:20:14;;;;;;;22.52;10.02;;;16.80;99.90;;;16.19;100.00;100470.59;5025370;28;20047;-80
2022/10/24 08:22:40;;;;;;;19.88;9.50;;;16.90;99.90;;;16.19;100.00;100468.78;5006352;28;20044;-79
2022/10/24 08:25:08;;;;;;;20.92;9.52;;;17.00;99.90;;;16.31;100.00;100464.38;5008159;28;20033;-81
2022/10/24 08:27:34;;;;;;;19.60;8.48;;;17.10;99.90;;;16.63;100.00;100457.56;5024454;28;20033;-79
2022/10/24 08:30:07;;;;;;;12.95;7.70;;;17.40;99.90;;;16.76;100.00;100472.47;5040647;28;20566;-79
2022/10/24 08:32:34;;;;;;;17.30;7.53;;;17.50;99.90;;;16.88;100.00;100457.41;5026128;28;20068;-81
2022/10/24 08:35:01;;;;;;;19.80;7.75;;;17.70;99.90;;;17.02;100.00;100467.84;5023685;28;20112;-80
2022/10/24 08:37:26;;;;;;;15.32;6.80;;;17.70;99.90;;;17.02;100.00;100464.34;5023544;28;20029;-80
2022/10/24 08:39:58;;;;;;;12.48;5.70;;;17.80;99.90;;;17.07;100.00;100459.50;5024870;28;20032;-81
2022/10/24 08:42:24;;;;;;;10.70;5.07;;;17.80;99.90;;;17.10;100.00;100455.75;5023571;28;20061;-81
2022/10/24 08:44:51;;;;;;;16.67;5.63;;;17.80;99.90;;;17.11;100.00;100449.47;5024418;28;20036;-79
2022/10/24 08:47:43;;;;;;;15.38;5.10;;;17.90;99.90;;;17.12;100.00;100449.34;5031531;28;20030;-81
2022/10/24 08:50:29;;;;;;;14.90;4.93;;;17.90;99.90;;;17.33;99.97;100435.31;5035231;28;20568;-80
2022/10/24 08:53:18;;;;;;;10.47;4.67;;;18.10;99.90;;;17.47;98.94;100436.88;5041220;28;20072;-79
2022/10/24 08:55:48;;;;;;;10.60;4.70;;;18.20;99.90;;;17.54;98.40;100427.44;5062493;28;20085;-79
2022/10/24 08:58:42;;;;;;;13.70;4.03;;;18.30;99.90;;;17.63;97.81;100435.50;5034135;28;20098;-81
2022/10/24 09:01:42;;;;;;;14.40;4.38;;;18.30;99.90;;;17.59;96.91;100435.88;5029020;28;20115;-81
2022/10/24 09:04:18;;;;;;;7.88;3.72;;;18.30;99.90;;;17.51;97.04;100430.34;5042687;23;20045;-81
2022/10/24 09:06:46;;;;;;;6.40;3.67;;;18.20;99.90;;;17.40;97.09;100421.38;5043739;28;20037;-82
2022/10/24 09:09:22;;;;;;;9.23;3.70;;;18.20;99.90;;;17.42;97.25;100431.91;5032443;28;20551;-81
2022/10/24 09:12:07;;;;;;;9.05;4.20;;;18.10;99.90;;;17.40;97.21;100432.03;5031728;28;20025;-81
2022/10/24 09:14:45;;;;;;;3.80;2.58;;;18.10;99.90;;;17.36;97.62;100422.59;5039072;28;21135;-81
2022/10/24 09:17:21;;;;;;;10.02;4.10;;;18.10;99.90;;;17.37;98.33;100423.47;5036279;28;20050;-81
2022/10/24 09:20:27;;;;;;;12.03;4.00;;;18.10;99.90;;;17.38;98.76;100420.66;5023768;28;20037;-80
2022/10/24 09:23:03;;;;;;;14.98;4.32;;;18.10;99.90;;;17.46;99.23;100421.88;5050656;23;20352;-81
2022/10/24 09:25:43;;;;;;;14.45;3.90;;;18.20;99.90;;;17.53;99.46;100423.06;5055031;28;20133;-80
2022/10/24 09:28:18;;;;;;;9.45;3.67;;;18.30;99.90;;;17.65;99.71;100415.91;5047786;28;20468;-79
2022/10/24 09:30:44;;;;;;;9.27;3.53;;;18.40;99.90;;;17.68;99.39;100408.50;5055749;28;20045;-82
2022/10/24 09:33:28;;;;;;;12.23;3.65;;;18.50;99.90;;;17.78;98.59;100406.78;5051524;28;20679;-82
2022/10/24 09:35:58;;;;;;;12.60;3.63;;;18.60;99.90;;;17.83;97.77;100414.44;5054366;28;20045;-82
2022/10/24 09:38:42;;;;;;;12.82;3.47;;;18.60;99.90;;;17.93;96.83;100411.88;5069992;28;20117;-82
2022/10/24 09:41:32;;;;;;;6.80;2.97;;;18.70;99.90;;;18.03;96.23;100421.66;5046310;28;20098;-81
2022/10/24 09:44:04;;;;;;;13.63;3.15;;;18.80;99.90;;;18.06;94.42;100412.53;5045048;28;20053;-80
2022/10/24 09:46:44;;;;;;;5.32;3.38;;;18.80;99.90;;;18.13;94.02;100410.22;5044320;28;20074;-81
2022/10/24 09:49:13;;;;;;;6.82;2.60;;;18.90;99.90;;;18.22;93.99;100412.09;5064607;28;20028;-81
2022/10/24 09:52:18;;;;;;;353.77;272.35;;;19.00;99.90;;;18.33;93.72;100412.03;5065425;28;20040;-81
2022/10/24 09:54:46;;;;;;;59.38;45.00;;;19.10;99.90;;;18.40;92.81;100410.56;5061890;28;20045;-82
2022/10/24 09:57:16;;;;;;;6.90;2.83;;;19.10;99.90;;;18.42;92.41;100416.63;5042545;28;20034;-80
2022/10/24 09:59:49;;;;;;;7.75;2.90;;;19.20;99.90;;;18.41;92.10;100416.75;5051765;28;20023;-82
2022/10/24 10:02:18;;;;;;;9.45;2.90;;;19.20;99.90;;;18.38;92.18;100414.31;5062437;28;20048;-81
2022/10/24 10:04:58;;;;;;;7.78;3.95;;;19.10;99.90;;;18.38;92.12;100417.84;5063175;28;20052;-81
2022/10/24 10:07:39;;;;;;;6.82;2.95;;;19.10;99.90;;;18.39;92.17;100408.88;5051335;28;20120;-80
2022/10/24 10:10:34;;;;;;;12.00;3.03;;;19.10;99.90;;;18.32;91.42;100409.53;5050085;28;20035;-82
2022/10/24 10:13:14;;;;;;;15.90;3.60;;;19.10;99.90;;;18.36;91.38;100408.28;5054884;28;20048;-81
2022/10/24 10:16:02;;;;;;;6.68;3.00;;;19.10;99.90;;;18.42;91.41;100413.94;5068814;28;20025;-81
2022/10/24 10:18:48;;;;;;;11.57;3.33;;;19.10;99.90;;;18.44;90.57;100422.66;5054526;28;20649;-80
2022/10/24 10:21:24;;;;;;;13.40;3.50;;;19.20;99.90;;;18.58;91.26;100433.97;5063712;28;20052;-82